createdAt,value
2023-05-14T00:02:18.673Z,5.70
2023-05-14T00:04:45.805Z,5.90
2023-05-14T00:07:12.874Z,5.50
2023-05-14T00:09:39.937Z,5.30
2023-05-14T00:12:07.463Z,4.90
2023-05-14T00:14:34.951Z,4.30
2023-05-14T00:17:07.421Z,4.30
2023-05-14T00:19:34.684Z,4.70
2023-05-14T00:22:02.184Z,4.70
2023-05-14T00:24:29.278Z,4.70
2023-05-14T00:26:56.428Z,5.10
2023-05-14T00:29:23.912Z,5.00
2023-05-14T00:31:51.715Z,5.00
2023-05-14T00:34:18.806Z,5.00
2023-05-14T00:36:46.228Z,4.80
2023-05-14T00:39:14.072Z,5.20
2023-05-14T00:41:41.076Z,5.60
2023-05-14T00:44:08.018Z,5.00
2023-05-14T00:46:35.624Z,4.70
2023-05-14T00:49:02.636Z,4.80
2023-05-14T00:51:30.044Z,4.50
2023-05-14T00:53:57.138Z,5.10
2023-05-14T00:56:25.008Z,4.90
2023-05-14T00:58:52.044Z,4.00
2023-05-14T01:01:19.168Z,3.40
2023-05-14T01:03:46.375Z,4.20
2023-05-14T01:06:29.560Z,4.30
2023-05-14T01:09:21.394Z,5.30
2023-05-14T01:11:55.772Z,4.50
2023-05-14T01:14:22.964Z,4.80
2023-05-14T01:16:53.847Z,5.00
2023-05-14T01:19:39.131Z,4.50
2023-05-14T01:22:07.152Z,4.70
2023-05-14T01:24:34.141Z,4.60
2023-05-14T01:27:32.267Z,4.90
2023-05-14T01:30:40.788Z,4.70
2023-05-14T01:33:11.731Z,4.90
2023-05-14T01:35:40.309Z,4.50
2023-05-14T01:38:10.842Z,4.80
2023-05-14T01:40:39.522Z,5.00
2023-05-14T01:43:06.837Z,3.60
2023-05-14T01:45:37.503Z,3.20
2023-05-14T01:48:05.978Z,4.20
2023-05-14T01:50:33.554Z,4.50
2023-05-14T01:53:00.509Z,4.30
2023-05-14T01:55:27.651Z,4.80
2023-05-14T01:57:54.898Z,4.80
2023-05-14T02:00:25.598Z,4.30
2023-05-14T02:02:52.751Z,4.40
2023-05-14T02:05:21.463Z,4.20
2023-05-14T02:07:48.510Z,4.40
2023-05-14T02:10:16.376Z,4.50
2023-05-14T02:12:43.429Z,5.00
2023-05-14T02:15:11.596Z,4.80
2023-05-14T02:17:38.985Z,4.20
2023-05-14T02:20:07.210Z,4.90
2023-05-14T02:22:34.185Z,4.60
2023-05-14T02:25:01.328Z,5.00
2023-05-14T02:27:28.278Z,4.60
2023-05-14T02:29:56.958Z,3.60
2023-05-14T02:32:24.107Z,3.50
2023-05-14T02:34:51.985Z,3.80
2023-05-14T02:37:19.236Z,3.90
2023-05-14T02:39:46.393Z,4.30
2023-05-14T02:42:16.082Z,4.40
2023-05-14T02:44:43.544Z,4.20
2023-05-14T02:47:11.282Z,4.00
2023-05-14T02:49:38.459Z,4.40
2023-05-14T02:52:05.812Z,4.40
2023-05-14T02:54:32.769Z,4.20
2023-05-14T02:56:59.744Z,4.50
2023-05-14T02:59:27.880Z,3.90
2023-05-14T03:01:56.091Z,4.20
2023-05-14T03:04:23.715Z,4.40
2023-05-14T03:06:50.986Z,4.40
2023-05-14T03:09:18.025Z,4.70
2023-05-14T03:11:45.572Z,3.70
2023-05-14T03:14:12.531Z,2.90
2023-05-14T03:16:42.531Z,3.00
2023-05-14T03:19:10.400Z,3.80
2023-05-14T03:21:37.476Z,3.80
2023-05-14T03:24:04.911Z,3.80
2023-05-14T03:26:31.828Z,4.00
2023-05-14T03:28:58.743Z,3.70
2023-05-14T03:31:26.290Z,4.10
2023-05-14T03:33:56.593Z,3.70
2023-05-14T03:36:23.652Z,4.20
2023-05-14T03:38:50.972Z,3.80
2023-05-14T03:41:19.298Z,4.00
2023-05-14T03:43:46.570Z,4.20
2023-05-14T03:46:13.483Z,4.00
2023-05-14T03:48:41.199Z,4.30
2023-05-14T03:51:08.278Z,3.70
2023-05-14T03:53:36.749Z,4.00
2023-05-14T03:56:04.508Z,4.00
2023-05-14T03:58:31.801Z,3.50
2023-05-14T04:01:00.601Z,3.00
2023-05-14T04:03:27.739Z,3.10
2023-05-14T04:05:55.516Z,3.80
2023-05-14T04:08:22.520Z,3.50
2023-05-14T04:10:50.111Z,3.60
2023-05-14T04:13:17.338Z,3.80
2023-05-14T04:15:44.949Z,4.00
2023-05-14T04:18:13.780Z,3.80
2023-05-14T04:20:41.228Z,3.60
2023-05-14T04:23:08.836Z,3.70
2023-05-14T04:25:35.774Z,3.60
2023-05-14T04:28:02.811Z,3.70
2023-05-14T04:30:30.372Z,3.50
2023-05-14T04:32:57.676Z,3.60
2023-05-14T04:35:28.457Z,4.10
2023-05-14T04:37:55.321Z,4.00
2023-05-14T04:40:23.036Z,3.80
2023-05-14T04:42:50.918Z,3.50
2023-05-14T04:45:18.421Z,3.70
2023-05-14T04:47:47.347Z,4.10
2023-05-14T04:50:14.457Z,3.90
2023-05-14T04:52:42.054Z,3.40
2023-05-14T04:55:10.103Z,2.90
2023-05-14T04:57:37.799Z,3.20
2023-05-14T05:00:09.731Z,3.60
2023-05-14T05:02:36.752Z,3.80
2023-05-14T05:05:04.333Z,4.20
2023-05-14T05:07:31.339Z,4.40
2023-05-14T05:09:58.185Z,3.50
2023-05-14T05:12:25.752Z,3.40
2023-05-14T05:14:52.588Z,3.30
2023-05-14T05:17:19.630Z,4.00
2023-05-14T05:19:47.063Z,4.00
2023-05-14T05:22:14.840Z,3.90
2023-05-14T05:24:42.631Z,3.40
2023-05-14T05:27:09.635Z,4.50
2023-05-14T05:29:36.685Z,3.60
2023-05-14T05:32:05.042Z,3.80
2023-05-14T05:34:32.259Z,3.70
2023-05-14T05:36:59.309Z,3.70
2023-05-14T05:39:26.216Z,4.00
2023-05-14T05:41:54.703Z,3.40
2023-05-14T05:44:22.102Z,3.80
2023-05-14T05:46:49.645Z,3.60
2023-05-14T05:49:17.092Z,3.40
2023-05-14T05:51:44.102Z,3.10
2023-05-14T05:54:11.458Z,2.90
2023-05-14T05:56:38.402Z,3.60
2023-05-14T05:59:05.284Z,3.60
2023-05-14T06:01:32.759Z,3.40
2023-05-14T06:03:59.582Z,3.50
2023-05-14T06:06:27.213Z,3.30
2023-05-14T06:08:54.584Z,3.20
2023-05-14T06:11:22.002Z,3.80
2023-05-14T06:13:49.132Z,3.70
2023-05-14T06:16:16.111Z,4.10
2023-05-14T06:18:43.160Z,3.50
2023-05-14T06:21:10.622Z,3.50
2023-05-14T06:23:37.662Z,3.60
2023-05-14T06:26:04.716Z,3.60
2023-05-14T06:28:31.764Z,3.50
2023-05-14T06:30:58.817Z,3.70
2023-05-14T06:33:31.169Z,3.90
2023-05-14T06:36:00.166Z,3.40
2023-05-14T06:38:27.435Z,3.40
2023-05-14T06:40:54.504Z,3.10
2023-05-14T06:43:22.816Z,3.30
2023-05-14T06:45:51.465Z,3.70
2023-05-14T06:48:19.715Z,2.90
2023-05-14T06:50:48.096Z,3.20
2023-05-14T06:53:16.219Z,3.30
2023-05-14T06:55:43.879Z,3.40
2023-05-14T06:58:10.944Z,3.30
2023-05-14T07:00:37.940Z,3.80
2023-05-14T07:03:05.255Z,3.00
2023-05-14T07:05:32.835Z,3.10
2023-05-14T07:07:59.921Z,3.40
2023-05-14T07:10:26.854Z,3.10
2023-05-14T07:12:54.276Z,3.70
2023-05-14T07:15:21.438Z,3.30
2023-05-14T07:17:48.528Z,3.10
2023-05-14T07:20:15.652Z,3.40
2023-05-14T07:22:42.674Z,3.70
2023-05-14T07:25:09.983Z,3.50
2023-05-14T07:27:36.938Z,3.30
2023-05-14T07:30:04.246Z,3.00
2023-05-14T07:32:31.715Z,3.30
2023-05-14T07:34:58.686Z,3.20
2023-05-14T07:37:28.908Z,2.80
2023-05-14T07:39:56.261Z,2.50
2023-05-14T07:42:35.377Z,2.90
2023-05-14T07:45:04.675Z,2.60
2023-05-14T07:47:32.402Z,3.20
2023-05-14T07:49:59.864Z,2.60
2023-05-14T07:52:26.815Z,2.90
2023-05-14T07:54:54.510Z,3.50
2023-05-14T07:57:22.345Z,3.50
2023-05-14T07:59:49.825Z,2.90
2023-05-14T08:02:17.848Z,3.40
2023-05-14T08:04:45.379Z,3.10
2023-05-14T08:07:13.034Z,3.40
2023-05-14T08:09:40.740Z,3.00
2023-05-14T08:12:08.506Z,3.30
2023-05-14T08:14:35.588Z,2.40
2023-05-14T08:17:02.653Z,2.40
2023-05-14T08:19:29.593Z,2.80
2023-05-14T08:21:56.797Z,2.90
2023-05-14T08:24:23.851Z,2.90
2023-05-14T08:26:51.096Z,3.00
2023-05-14T08:29:18.973Z,3.40
2023-05-14T08:31:46.113Z,3.40
2023-05-14T08:34:13.163Z,3.20
2023-05-14T08:36:40.139Z,3.10
2023-05-14T08:39:10.224Z,3.10
2023-05-14T08:41:37.868Z,2.80
2023-05-14T08:44:14.078Z,2.80
2023-05-14T08:46:42.176Z,2.50
2023-05-14T08:49:54.221Z,2.50
2023-05-14T08:52:23.705Z,2.80
2023-05-14T08:54:54.478Z,2.70
2023-05-14T08:57:24.967Z,2.90
2023-05-14T08:59:52.340Z,3.00
2023-05-14T09:02:23.854Z,3.30
2023-05-14T09:05:12.621Z,3.00
2023-05-14T09:07:40.149Z,2.80
2023-05-14T09:10:09.406Z,2.70
2023-05-14T09:12:36.698Z,2.40
2023-05-14T09:15:03.844Z,2.60
2023-05-14T09:17:30.881Z,2.70
2023-05-14T09:19:58.578Z,3.10
2023-05-14T09:22:25.631Z,3.30
2023-05-14T09:25:12.173Z,3.20
2023-05-14T09:27:39.449Z,2.80
2023-05-14T09:30:07.785Z,3.30
2023-05-14T09:32:44.696Z,2.90
2023-05-14T09:35:18.698Z,3.30
2023-05-14T09:37:48.831Z,2.60
2023-05-14T09:40:16.750Z,2.40
2023-05-14T09:42:43.928Z,2.70
2023-05-14T09:45:11.881Z,3.00
2023-05-14T09:47:40.109Z,2.60
2023-05-14T09:50:08.663Z,3.10
2023-05-14T09:52:35.810Z,3.10
2023-05-14T09:55:02.952Z,3.20
2023-05-14T09:57:29.999Z,3.00
2023-05-14T09:59:56.948Z,3.10
2023-05-14T10:02:31.405Z,3.00
2023-05-14T10:05:02.207Z,2.60
2023-05-14T10:07:35.592Z,2.80
2023-05-14T10:10:07.464Z,2.80
2023-05-14T10:12:36.898Z,3.50
2023-05-14T10:15:19.743Z,3.10
2023-05-14T10:17:50.189Z,3.00
2023-05-14T10:20:17.823Z,3.50
2023-05-14T10:22:44.901Z,3.30
2023-05-14T10:25:12.202Z,3.20
2023-05-14T10:27:40.521Z,2.60
2023-05-14T10:30:12.880Z,2.90
2023-05-14T10:32:42.403Z,3.90
2023-05-14T10:35:20.982Z,3.70
2023-05-14T10:37:51.707Z,3.70
2023-05-14T10:40:19.380Z,3.40
2023-05-14T10:42:47.029Z,3.60
2023-05-14T10:45:15.739Z,3.00
2023-05-14T10:47:44.617Z,2.50
2023-05-14T10:50:14.337Z,3.50
2023-05-14T10:52:45.458Z,3.20
2023-05-14T10:55:16.954Z,3.20
2023-05-14T10:57:46.286Z,3.70
2023-05-14T11:00:14.705Z,3.20
2023-05-14T11:02:44.196Z,3.20
2023-05-14T11:05:19.835Z,3.50
2023-05-14T11:07:49.432Z,3.50
2023-05-14T11:10:20.216Z,3.90
2023-05-14T11:12:49.261Z,3.80
2023-05-14T11:15:21.969Z,3.50
2023-05-14T11:17:50.657Z,3.00
2023-05-14T11:20:18.715Z,3.30
2023-05-14T11:22:48.109Z,3.20
2023-05-14T11:25:15.746Z,2.50
2023-05-14T11:27:47.250Z,2.50
2023-05-14T11:30:19.192Z,2.90
2023-05-14T11:32:48.240Z,3.00
2023-05-14T11:35:16.311Z,2.90
2023-05-14T11:37:44.289Z,3.30
2023-05-14T11:40:20.316Z,3.00
2023-05-14T11:42:47.249Z,3.00
2023-05-14T11:45:24.652Z,2.90
2023-05-14T11:47:53.103Z,3.00
2023-05-14T11:50:21.957Z,2.80
2023-05-14T11:52:50.890Z,3.10
2023-05-14T11:55:18.132Z,2.80
2023-05-14T11:57:45.229Z,3.10
2023-05-14T12:00:14.628Z,2.90
2023-05-14T12:02:42.031Z,2.70
2023-05-14T12:05:12.687Z,3.40
2023-05-14T12:07:39.806Z,2.90
2023-05-14T12:10:07.476Z,3.00
2023-05-14T12:12:39.461Z,3.20
2023-05-14T12:15:13.822Z,3.00
2023-05-14T12:17:41.501Z,3.10
2023-05-14T12:20:10.755Z,3.00
2023-05-14T12:22:37.938Z,3.10
2023-05-14T12:25:11.426Z,3.20
2023-05-14T12:27:38.698Z,2.80
2023-05-14T12:32:41.327Z,3.30
2023-05-14T12:35:09.074Z,2.90
2023-05-14T12:37:37.662Z,2.90
2023-05-14T12:40:09.618Z,3.20
2023-05-14T12:42:37.049Z,2.80
2023-05-14T12:45:07.468Z,3.30
2023-05-14T12:47:34.774Z,2.70
2023-05-14T12:50:01.977Z,3.30
2023-05-14T12:54:59.445Z,3.10
2023-05-14T12:57:27.829Z,3.30
2023-05-14T12:59:55.376Z,3.00
2023-05-14T13:02:22.521Z,3.20
2023-05-14T13:04:49.510Z,3.20
2023-05-14T13:07:16.710Z,2.60
2023-05-14T13:09:43.739Z,3.10
2023-05-14T13:12:11.034Z,3.30
2023-05-14T13:14:37.949Z,3.30
2023-05-14T13:17:06.443Z,3.40
2023-05-14T13:19:33.780Z,3.20
2023-05-14T13:22:00.714Z,3.10
2023-05-14T13:24:27.667Z,3.50
2023-05-14T13:26:54.605Z,3.80
2023-05-14T13:29:21.516Z,3.60
2023-05-14T13:31:48.361Z,3.10
2023-05-14T13:34:15.272Z,3.40
2023-05-14T13:36:44.619Z,3.30
2023-05-14T13:39:15.272Z,3.00
2023-05-14T13:41:42.443Z,3.00
2023-05-14T13:44:10.317Z,3.20
2023-05-14T13:46:37.546Z,3.80
2023-05-14T13:49:04.675Z,2.90
2023-05-14T13:51:31.592Z,3.50
2023-05-14T13:53:58.694Z,2.90
2023-05-14T13:56:26.164Z,3.30
2023-05-14T13:58:53.261Z,3.30
2023-05-14T14:01:20.336Z,3.50
2023-05-14T14:03:47.453Z,3.20
2023-05-14T14:06:14.399Z,3.80
2023-05-14T14:08:41.274Z,3.60
2023-05-14T14:11:08.281Z,4.00
2023-05-14T14:13:35.249Z,3.50
2023-05-14T14:16:03.647Z,3.70
2023-05-14T14:18:30.674Z,3.30
2023-05-14T14:20:58.628Z,2.70
2023-05-14T14:23:25.980Z,2.30
2023-05-14T14:25:53.419Z,2.90
2023-05-14T14:28:20.420Z,3.10
2023-05-14T14:30:50.705Z,3.30
2023-05-14T14:33:17.765Z,3.10
2023-05-14T14:35:44.709Z,3.60
2023-05-14T14:38:12.052Z,2.90
2023-05-14T14:40:43.204Z,3.30
2023-05-14T14:43:10.262Z,3.00
2023-05-14T14:45:37.570Z,3.40
2023-05-14T14:48:22.771Z,2.80
2023-05-14T14:50:49.909Z,3.20
2023-05-14T14:53:16.727Z,2.80
2023-05-14T14:55:43.752Z,2.80
2023-05-14T14:58:10.775Z,2.90
2023-05-14T15:00:38.236Z,2.20
2023-05-14T15:03:05.337Z,2.40
2023-05-14T15:05:32.432Z,2.60
2023-05-14T15:07:59.357Z,2.80
2023-05-14T15:10:29.075Z,2.80
2023-05-14T15:12:58.757Z,2.60
2023-05-14T15:15:26.565Z,2.50
2023-05-14T15:17:53.592Z,3.00
2023-05-14T15:20:20.571Z,2.80
2023-05-14T15:22:47.521Z,2.30
2023-05-14T15:25:14.368Z,2.30
2023-05-14T15:27:41.262Z,2.80
2023-05-14T15:30:08.696Z,2.40
2023-05-14T15:32:35.654Z,2.80
2023-05-14T15:35:04.013Z,2.80
2023-05-14T15:37:41.373Z,2.90
2023-05-14T15:40:09.226Z,3.40
2023-05-14T15:42:44.661Z,3.40
2023-05-14T15:45:13.546Z,2.40
2023-05-14T15:47:41.302Z,3.50
2023-05-14T15:50:08.964Z,3.80
2023-05-14T15:52:40.210Z,3.80
2023-05-14T15:55:07.586Z,3.70
2023-05-14T15:57:34.860Z,4.30
2023-05-14T16:00:02.031Z,4.30
2023-05-14T16:02:33.462Z,4.10
2023-05-14T16:05:00.633Z,4.60
2023-05-14T16:07:27.771Z,4.50
2023-05-14T16:09:54.973Z,4.40
2023-05-14T16:12:21.983Z,4.30
2023-05-14T16:14:48.957Z,3.30
2023-05-14T16:17:16.004Z,3.60
2023-05-14T16:19:43.150Z,3.60
2023-05-14T16:22:10.244Z,3.80
2023-05-14T16:24:37.145Z,4.30
2023-05-14T16:27:04.299Z,4.20
2023-05-14T16:29:34.772Z,4.30
2023-05-14T16:32:02.770Z,3.90
2023-05-14T16:34:29.797Z,4.20
2023-05-14T16:36:56.893Z,3.90
2023-05-14T16:39:23.949Z,3.60
2023-05-14T16:41:50.979Z,3.60
2023-05-14T16:44:17.925Z,3.70
2023-05-14T16:46:45.178Z,3.50
2023-05-14T16:49:12.632Z,3.40
2023-05-14T16:51:43.276Z,3.70
2023-05-14T16:54:10.308Z,3.00
2023-05-14T16:56:37.324Z,2.30
2023-05-14T16:59:04.197Z,2.80
2023-05-14T17:01:31.511Z,3.50
2023-05-14T17:03:58.531Z,3.50
2023-05-14T17:06:26.087Z,3.50
2023-05-14T17:08:53.023Z,3.20
2023-05-14T17:11:21.176Z,3.50
2023-05-14T17:13:48.242Z,3.10
2023-05-14T17:16:15.165Z,3.10
2023-05-14T17:18:42.299Z,3.20
2023-05-14T17:21:09.613Z,3.00
2023-05-14T17:23:36.673Z,3.30
2023-05-14T17:26:03.743Z,3.20
2023-05-14T17:28:30.704Z,3.40
2023-05-14T17:31:00.299Z,3.40
2023-05-14T17:33:27.325Z,3.30
2023-05-14T17:35:54.341Z,3.10
2023-05-14T17:38:21.274Z,3.20
2023-05-14T17:40:48.200Z,3.50
2023-05-14T17:43:15.149Z,3.00
2023-05-14T17:45:53.135Z,2.40
2023-05-14T17:48:22.487Z,2.00
2023-05-14T17:50:49.812Z,2.80
2023-05-14T17:53:16.974Z,2.70
2023-05-14T17:55:44.608Z,2.70
2023-05-14T17:58:14.009Z,2.60
2023-05-14T18:00:41.950Z,3.30
2023-05-14T18:03:09.343Z,2.90
2023-05-14T18:05:36.711Z,2.80
2023-05-14T18:08:03.624Z,3.30
2023-05-14T18:10:30.662Z,2.90
2023-05-14T18:12:57.618Z,2.80
2023-05-14T18:15:25.898Z,3.20
2023-05-14T18:17:53.224Z,3.00
2023-05-14T18:20:20.791Z,3.30
2023-05-14T18:22:47.939Z,3.60
2023-05-14T18:25:15.230Z,3.00
2023-05-14T18:27:45.608Z,3.30
2023-05-14T18:30:16.864Z,3.10
2023-05-14T18:32:44.833Z,3.20
2023-05-14T18:35:13.187Z,3.40
2023-05-14T18:37:47.443Z,3.70
2023-05-14T18:40:18.662Z,2.70
2023-05-14T18:42:45.991Z,2.60
2023-05-14T18:45:12.908Z,2.70
2023-05-14T18:47:40.232Z,2.70
2023-05-14T18:50:08.096Z,3.60
2023-05-14T18:52:35.395Z,4.00
2023-05-14T18:55:02.261Z,3.10
2023-05-14T18:57:36.043Z,3.90
2023-05-14T19:00:04.194Z,3.50
2023-05-14T19:02:31.353Z,3.50
2023-05-14T19:04:58.433Z,4.10
2023-05-14T19:07:27.357Z,3.40
2023-05-14T19:09:54.294Z,4.30
2023-05-14T19:12:21.168Z,4.10
2023-05-14T19:14:48.251Z,4.10
2023-05-14T19:17:15.831Z,3.80
2023-05-14T19:19:44.382Z,3.80
2023-05-14T19:22:11.362Z,3.70
2023-05-14T19:24:38.298Z,2.90
2023-05-14T19:27:05.577Z,3.30
2023-05-14T19:29:36.850Z,3.60
2023-05-14T19:32:07.348Z,3.70
2023-05-14T19:34:34.452Z,3.20
2023-05-14T19:37:01.519Z,3.90
2023-05-14T19:39:28.511Z,4.20
2023-05-14T19:41:55.451Z,3.70
2023-05-14T19:44:22.342Z,3.10
2023-05-14T19:46:49.389Z,3.40
2023-05-14T19:49:16.454Z,3.30
2023-05-14T19:51:43.292Z,3.20
2023-05-14T19:54:10.233Z,3.90
2023-05-14T19:56:38.405Z,3.20
2023-05-14T19:59:05.406Z,3.00
2023-05-14T20:01:32.732Z,2.80
2023-05-14T20:03:59.679Z,2.50
2023-05-14T20:06:27.171Z,2.50
2023-05-14T20:08:55.321Z,2.60
2023-05-14T20:11:22.199Z,2.50
2023-05-14T20:13:51.292Z,3.30
2023-05-14T20:16:18.731Z,2.60
2023-05-14T20:18:46.270Z,2.80
2023-05-14T20:21:13.296Z,3.00
2023-05-14T20:23:40.271Z,2.70
2023-05-14T20:26:07.239Z,3.20
2023-05-14T20:28:34.573Z,3.00
2023-05-14T20:31:04.202Z,2.70
2023-05-14T20:33:31.393Z,2.90
2023-05-14T20:35:58.541Z,3.00
2023-05-14T20:38:29.511Z,2.90
2023-05-14T20:40:56.510Z,3.20
2023-05-14T20:43:23.763Z,3.20
2023-05-14T20:45:50.663Z,3.10
2023-05-14T20:48:18.077Z,2.90
2023-05-14T20:50:45.022Z,2.40
2023-05-14T20:53:11.957Z,2.50
2023-05-14T20:55:43.134Z,2.90
2023-05-14T20:58:11.057Z,2.50
2023-05-14T21:00:38.027Z,3.10
2023-05-14T21:03:05.085Z,2.70
2023-05-14T21:05:32.610Z,2.70
2023-05-14T21:08:00.199Z,2.70
2023-05-14T21:10:27.606Z,2.70
2023-05-14T21:12:55.900Z,2.50
2023-05-14T21:15:23.406Z,3.10
2023-05-14T21:17:51.674Z,3.20
2023-05-14T21:20:18.798Z,3.10
2023-05-14T21:22:46.142Z,3.00
2023-05-14T21:25:13.304Z,2.70
2023-05-14T21:27:40.339Z,2.20
2023-05-14T21:30:08.108Z,1.80
2023-05-14T21:32:35.141Z,2.50
2023-05-14T21:35:02.320Z,2.40
2023-05-14T21:37:29.346Z,2.80
2023-05-14T21:39:56.234Z,2.80
2023-05-14T21:42:26.566Z,2.50
2023-05-14T21:44:53.789Z,2.70
2023-05-14T21:47:21.264Z,2.80
2023-05-14T21:49:48.170Z,2.70
2023-05-14T21:52:15.894Z,2.50
2023-05-14T21:54:44.155Z,3.30
2023-05-14T21:57:11.036Z,2.50
2023-05-14T21:59:37.975Z,2.50
2023-05-14T22:02:07.736Z,2.20
2023-05-14T22:04:35.436Z,2.90
2023-05-14T22:07:03.454Z,3.20
2023-05-14T22:09:30.751Z,2.60
2023-05-14T22:11:58.498Z,2.50
2023-05-14T22:14:27.434Z,2.50
2023-05-14T22:16:54.683Z,2.70
2023-05-14T22:19:21.667Z,3.20
2023-05-14T22:21:48.540Z,2.60
2023-05-14T22:24:15.949Z,2.10
2023-05-14T22:26:42.887Z,2.50
2023-05-14T22:29:09.835Z,2.50
2023-05-14T22:31:37.015Z,3.20
2023-05-14T22:34:04.284Z,2.50
2023-05-14T22:36:31.427Z,2.40
2023-05-14T22:38:58.535Z,2.70
2023-05-14T22:41:26.760Z,2.80
2023-05-14T22:43:53.764Z,2.80
2023-05-14T22:46:21.483Z,2.60
2023-05-14T22:48:49.363Z,2.30
2023-05-14T22:51:16.749Z,2.80
2023-05-14T22:53:43.700Z,2.70
2023-05-14T22:56:10.912Z,2.40
2023-05-14T22:58:37.892Z,2.90
2023-05-14T23:01:05.239Z,2.20
2023-05-14T23:03:32.197Z,2.10
2023-05-14T23:05:59.301Z,2.70
2023-05-14T23:08:26.282Z,2.50
2023-05-14T23:10:53.228Z,2.30
2023-05-14T23:13:20.474Z,2.40
2023-05-14T23:15:47.622Z,2.20
2023-05-14T23:18:14.623Z,2.30
2023-05-14T23:20:41.664Z,2.70
2023-05-14T23:23:08.678Z,2.50
2023-05-14T23:25:35.727Z,2.60
2023-05-14T23:28:02.865Z,2.70
2023-05-14T23:30:30.216Z,2.50
2023-05-14T23:32:57.200Z,2.70
2023-05-14T23:35:25.254Z,2.40
2023-05-14T23:37:52.537Z,2.40
2023-05-14T23:40:19.424Z,2.30
2023-05-14T23:42:46.658Z,2.70
2023-05-14T23:45:14.047Z,2.50
2023-05-14T23:47:41.526Z,2.80
2023-05-14T23:50:09.020Z,2.70
2023-05-14T23:52:35.953Z,2.80
2023-05-14T23:55:02.942Z,2.40
2023-05-14T23:57:30.119Z,2.40
2023-05-14T23:59:57.067Z,2.30
